sensor_id;sensor_type;location;lat;lon;timestamp;pressure;altitude;pressure_sealevel;temperature;humidity
7918;BME280;4004;42.624;23.386;2023-04-28T00:01:50;94327.06;;;7.54;49.93
7918;BME280;4004;42.624;23.386;2023-04-28T00:04:17;94327.84;;;7.55;49.96
7918;BME280;4004;42.624;23.386;2023-04-28T00:06:44;94318.44;;;7.48;49.91
7918;BME280;4004;42.624;23.386;2023-04-28T00:09:11;94334.94;;;7.38;49.82
7918;BME280;4004;42.624;23.386;2023-04-28T00:11:39;94327.81;;;7.21;50.54
7918;BME280;4004;42.624;23.386;2023-04-28T00:14:07;94337.03;;;7.12;50.93
7918;BME280;4004;42.624;23.386;2023-04-28T00:16:33;94337.38;;;7.10;50.91
7918;BME280;4004;42.624;23.386;2023-04-28T00:19:00;94324.31;;;7.09;50.54
7918;BME280;4004;42.624;23.386;2023-04-28T00:21:27;94336.50;;;6.97;50.94
7918;BME280;4004;42.624;23.386;2023-04-28T00:23:54;94333.44;;;6.87;51.51
7918;BME280;4004;42.624;23.386;2023-04-28T00:26:20;94335.66;;;6.84;51.67
7918;BME280;4004;42.624;23.386;2023-04-28T00:28:48;94340.31;;;6.96;51.64
7918;BME280;4004;42.624;23.386;2023-04-28T00:31:15;94330.06;;;6.77;51.91
7918;BME280;4004;42.624;23.386;2023-04-28T00:33:43;94334.81;;;6.72;51.60
7918;BME280;4004;42.624;23.386;2023-04-28T00:36:10;94334.69;;;6.68;52.00
7918;BME280;4004;42.624;23.386;2023-04-28T00:38:37;94340.03;;;6.68;52.39
7918;BME280;4004;42.624;23.386;2023-04-28T00:41:03;94327.66;;;6.63;52.25
7918;BME280;4004;42.624;23.386;2023-04-28T00:43:30;94342.56;;;6.64;52.41
7918;BME280;4004;42.624;23.386;2023-04-28T00:45:58;94342.09;;;6.62;52.34
7918;BME280;4004;42.624;23.386;2023-04-28T00:48:25;94340.47;;;6.49;52.91
7918;BME280;4004;42.624;23.386;2023-04-28T00:50:54;94338.88;;;6.48;52.56
7918;BME280;4004;42.624;23.386;2023-04-28T00:53:20;94336.88;;;6.45;52.83
7918;BME280;4004;42.624;23.386;2023-04-28T00:55:48;94345.91;;;6.32;53.32
7918;BME280;4004;42.624;23.386;2023-04-28T00:58:18;94340.72;;;6.27;53.74
7918;BME280;4004;42.624;23.386;2023-04-28T01:00:44;94338.97;;;6.31;53.66
7918;BME280;4004;42.624;23.386;2023-04-28T01:03:13;94339.81;;;6.22;53.96
7918;BME280;4004;42.624;23.386;2023-04-28T01:05:40;94337.66;;;6.16;54.00
7918;BME280;4004;42.624;23.386;2023-04-28T01:08:07;94342.56;;;6.05;53.96
7918;BME280;4004;42.624;23.386;2023-04-28T01:10:33;94346.78;;;6.06;53.82
7918;BME280;4004;42.624;23.386;2023-04-28T01:13:00;94349.00;;;6.04;54.30
7918;BME280;4004;42.624;23.386;2023-04-28T01:15:27;94350.28;;;5.98;54.56
7918;BME280;4004;42.624;23.386;2023-04-28T01:17:54;94349.34;;;5.94;54.48
7918;BME280;4004;42.624;23.386;2023-04-28T01:20:23;94349.66;;;6.01;53.90
7918;BME280;4004;42.624;23.386;2023-04-28T01:22:49;94349.50;;;5.97;54.09
7918;BME280;4004;42.624;23.386;2023-04-28T01:25:18;94343.53;;;5.92;54.17
7918;BME280;4004;42.624;23.386;2023-04-28T01:27:44;94351.06;;;5.98;54.07
7918;BME280;4004;42.624;23.386;2023-04-28T01:30:11;94351.06;;;5.90;54.23
7918;BME280;4004;42.624;23.386;2023-04-28T01:32:38;94349.97;;;5.91;54.20
7918;BME280;4004;42.624;23.386;2023-04-28T01:35:05;94355.03;;;5.75;54.29
7918;BME280;4004;42.624;23.386;2023-04-28T01:37:32;94354.25;;;5.74;54.59
7918;BME280;4004;42.624;23.386;2023-04-28T01:39:58;94348.28;;;5.69;54.34
7918;BME280;4004;42.624;23.386;2023-04-28T01:42:27;94351.44;;;5.62;54.59
7918;BME280;4004;42.624;23.386;2023-04-28T01:44:53;94359.69;;;5.87;53.68
7918;BME280;4004;42.624;23.386;2023-04-28T01:47:20;94349.22;;;5.81;53.73
7918;BME280;4004;42.624;23.386;2023-04-28T01:49:47;94345.47;;;5.74;53.94
7918;BME280;4004;42.624;23.386;2023-04-28T01:52:14;94347.97;;;5.79;53.63
7918;BME280;4004;42.624;23.386;2023-04-28T01:54:41;94352.22;;;5.71;53.87
7918;BME280;4004;42.624;23.386;2023-04-28T01:57:08;94354.28;;;5.66;54.25
7918;BME280;4004;42.624;23.386;2023-04-28T01:59:36;94353.78;;;5.72;54.15
7918;BME280;4004;42.624;23.386;2023-04-28T02:02:02;94341.41;;;5.68;54.70
7918;BME280;4004;42.624;23.386;2023-04-28T02:04:29;94353.94;;;5.76;53.33
7918;BME280;4004;42.624;23.386;2023-04-28T02:06:56;94358.31;;;5.80;53.84
7918;BME280;4004;42.624;23.386;2023-04-28T02:09:23;94347.69;;;5.63;53.62
7918;BME280;4004;42.624;23.386;2023-04-28T02:11:49;94352.09;;;5.59;53.79
7918;BME280;4004;42.624;23.386;2023-04-28T02:14:16;94359.81;;;5.52;54.40
7918;BME280;4004;42.624;23.386;2023-04-28T02:16:44;94357.28;;;5.47;54.57
7918;BME280;4004;42.624;23.386;2023-04-28T02:19:11;94360.44;;;5.40;54.56
7918;BME280;4004;42.624;23.386;2023-04-28T02:21:37;94362.31;;;5.39;55.02
7918;BME280;4004;42.624;23.386;2023-04-28T02:24:05;94368.28;;;5.36;55.38
7918;BME280;4004;42.624;23.386;2023-04-28T02:26:32;94369.06;;;5.37;55.15
7918;BME280;4004;42.624;23.386;2023-04-28T02:28:59;94366.41;;;5.37;55.42
7918;BME280;4004;42.624;23.386;2023-04-28T02:31:28;94370.16;;;5.45;55.42
7918;BME280;4004;42.624;23.386;2023-04-28T02:33:57;94373.16;;;5.43;55.76
7918;BME280;4004;42.624;23.386;2023-04-28T02:36:23;94373.44;;;5.42;55.83
7918;BME280;4004;42.624;23.386;2023-04-28T02:38:52;94368.09;;;5.50;55.64
7918;BME280;4004;42.624;23.386;2023-04-28T02:41:19;94370.63;;;5.47;55.90
7918;BME280;4004;42.624;23.386;2023-04-28T02:43:45;94387.09;;;5.40;55.82
7918;BME280;4004;42.624;23.386;2023-04-28T02:46:12;94380.03;;;5.35;55.96
7918;BME280;4004;42.624;23.386;2023-04-28T02:48:39;94381.44;;;5.42;56.06
7918;BME280;4004;42.624;23.386;2023-04-28T02:51:07;94379.56;;;5.42;55.91
7918;BME280;4004;42.624;23.386;2023-04-28T02:53:34;94365.16;;;5.34;56.46
7918;BME280;4004;42.624;23.386;2023-04-28T02:56:00;94382.88;;;5.48;56.55
7918;BME280;4004;42.624;23.386;2023-04-28T02:58:28;94375.34;;;5.41;56.25
7918;BME280;4004;42.624;23.386;2023-04-28T03:00:55;94374.88;;;5.48;56.10
7918;BME280;4004;42.624;23.386;2023-04-28T03:03:22;94392.59;;;5.52;56.29
7918;BME280;4004;42.624;23.386;2023-04-28T03:05:49;94396.81;;;5.45;56.46
7918;BME280;4004;42.624;23.386;2023-04-28T03:08:17;94389.47;;;5.24;56.94
7918;BME280;4004;42.624;23.386;2023-04-28T03:10:45;94394.00;;;5.32;56.84
7918;BME280;4004;42.624;23.386;2023-04-28T03:13:12;94397.13;;;5.52;56.39
7918;BME280;4004;42.624;23.386;2023-04-28T03:15:38;94388.66;;;5.50;57.00
7918;BME280;4004;42.624;23.386;2023-04-28T03:18:05;94395.41;;;5.47;57.08
7918;BME280;4004;42.624;23.386;2023-04-28T03:20:32;94395.41;;;5.56;57.04
7918;BME280;4004;42.624;23.386;2023-04-28T03:22:58;94392.59;;;5.52;56.10
7918;BME280;4004;42.624;23.386;2023-04-28T03:25:27;94403.06;;;5.66;56.09
7918;BME280;4004;42.624;23.386;2023-04-28T03:27:54;94409.81;;;5.55;55.87
7918;BME280;4004;42.624;23.386;2023-04-28T03:30:21;94417.34;;;5.70;55.54
7918;BME280;4004;42.624;23.386;2023-04-28T03:32:48;94420.78;;;5.62;55.13
7918;BME280;4004;42.624;23.386;2023-04-28T03:35:14;94416.41;;;5.57;56.03
7918;BME280;4004;42.624;23.386;2023-04-28T03:37:41;94420.94;;;5.74;54.69
7918;BME280;4004;42.624;23.386;2023-04-28T03:40:09;94419.16;;;6.05;54.33
7918;BME280;4004;42.624;23.386;2023-04-28T03:42:37;94426.34;;;6.21;53.53
7918;BME280;4004;42.624;23.386;2023-04-28T03:45:04;94426.03;;;6.61;52.25
7918;BME280;4004;42.624;23.386;2023-04-28T03:47:31;94433.91;;;6.88;51.55
7918;BME280;4004;42.624;23.386;2023-04-28T03:49:58;94427.41;;;7.39;50.51
7918;BME280;4004;42.624;23.386;2023-04-28T03:52:25;94440.16;;;7.76;48.83
7918;BME280;4004;42.624;23.386;2023-04-28T03:54:51;94449.47;;;8.24;47.80
7918;BME280;4004;42.624;23.386;2023-04-28T03:57:18;94437.59;;;8.95;46.37
7918;BME280;4004;42.624;23.386;2023-04-28T03:59:46;94448.06;;;9.25;45.46
7918;BME280;4004;42.624;23.386;2023-04-28T04:02:13;94446.28;;;9.98;44.12
7918;BME280;4004;42.624;23.386;2023-04-28T04:04:40;94454.53;;;10.49;42.59
7918;BME280;4004;42.624;23.386;2023-04-28T04:07:07;94460.66;;;11.13;41.61
7918;BME280;4004;42.624;23.386;2023-04-28T04:09:33;94477.22;;;11.86;39.90
7918;BME280;4004;42.624;23.386;2023-04-28T04:12:00;94476.47;;;12.47;38.53
7918;BME280;4004;42.624;23.386;2023-04-28T04:14:27;94483.66;;;13.32;37.62
7918;BME280;4004;42.624;23.386;2023-04-28T04:16:55;94482.28;;;14.36;35.34
7918;BME280;4004;42.624;23.386;2023-04-28T04:19:21;94475.34;;;15.17;34.28
7918;BME280;4004;42.624;23.386;2023-04-28T04:21:50;94480.34;;;15.70;33.17
7918;BME280;4004;42.624;23.386;2023-04-28T04:24:17;94483.34;;;16.31;31.92
7918;BME280;4004;42.624;23.386;2023-04-28T04:26:44;94481.19;;;17.19;30.67
7918;BME280;4004;42.624;23.386;2023-04-28T04:29:10;94499.00;;;17.70;30.28
7918;BME280;4004;42.624;23.386;2023-04-28T04:31:37;94488.38;;;18.26;29.34
7918;BME280;4004;42.624;23.386;2023-04-28T04:34:05;94491.50;;;18.98;28.50
7918;BME280;4004;42.624;23.386;2023-04-28T04:36:32;94493.53;;;19.84;27.34
7918;BME280;4004;42.624;23.386;2023-04-28T04:38:59;94497.22;;;20.39;26.23
7918;BME280;4004;42.624;23.386;2023-04-28T04:41:25;94500.84;;;20.63;25.84
7918;BME280;4004;42.624;23.386;2023-04-28T04:43:52;94505.56;;;20.90;25.66
7918;BME280;4004;42.624;23.386;2023-04-28T04:46:19;94508.69;;;21.43;24.84
7918;BME280;4004;42.624;23.386;2023-04-28T04:48:46;94506.00;;;21.86;24.22
7918;BME280;4004;42.624;23.386;2023-04-28T04:51:14;94507.81;;;22.37;23.90
7918;BME280;4004;42.624;23.386;2023-04-28T04:53:41;94503.69;;;22.85;23.16
7918;BME280;4004;42.624;23.386;2023-04-28T04:56:07;94511.66;;;23.15;23.11
7918;BME280;4004;42.624;23.386;2023-04-28T04:58:34;94507.22;;;23.22;22.60
7918;BME280;4004;42.624;23.386;2023-04-28T05:01:01;94519.47;;;22.41;22.99
7918;BME280;4004;42.624;23.386;2023-04-28T05:03:28;94521.59;;;21.66;23.54
7918;BME280;4004;42.624;23.386;2023-04-28T05:05:54;94515.41;;;21.62;23.89
7918;BME280;4004;42.624;23.386;2023-04-28T05:08:22;94512.94;;;20.62;24.62
7918;BME280;4004;42.624;23.386;2023-04-28T05:10:49;94517.25;;;20.90;24.75
7918;BME280;4004;42.624;23.386;2023-04-28T05:13:16;94525.81;;;21.20;24.51
7918;BME280;4004;42.624;23.386;2023-04-28T05:15:43;94519.59;;;20.61;24.89
7918;BME280;4004;42.624;23.386;2023-04-28T05:18:09;94523.31;;;20.40;25.07
7918;BME280;4004;42.624;23.386;2023-04-28T05:20:38;94521.44;;;20.34;25.30
7918;BME280;4004;42.624;23.386;2023-04-28T05:23:05;94522.19;;;20.38;25.09
7918;BME280;4004;42.624;23.386;2023-04-28T05:25:33;94514.81;;;20.35;25.50
7918;BME280;4004;42.624;23.386;2023-04-28T05:28:00;94519.69;;;20.50;25.57
7918;BME280;4004;42.624;23.386;2023-04-28T05:30:31;94523.53;;;20.87;25.32
7918;BME280;4004;42.624;23.386;2023-04-28T05:32:58;94511.28;;;20.72;25.30
7918;BME280;4004;42.624;23.386;2023-04-28T05:35:25;94517.00;;;20.47;25.70
7918;BME280;4004;42.624;23.386;2023-04-28T05:37:51;94514.75;;;19.62;26.34
7918;BME280;4004;42.624;23.386;2023-04-28T05:40:18;94502.31;;;19.09;26.73
7918;BME280;4004;42.624;23.386;2023-04-28T05:42:46;94515.13;;;19.16;26.92
7918;BME280;4004;42.624;23.386;2023-04-28T05:45:13;94508.22;;;19.94;26.37
7918;BME280;4004;42.624;23.386;2023-04-28T05:47:40;94514.41;;;20.70;25.80
7918;BME280;4004;42.624;23.386;2023-04-28T05:50:08;94523.22;;;21.09;25.17
7918;BME280;4004;42.624;23.386;2023-04-28T05:52:35;94523.97;;;20.52;25.62
7918;BME280;4004;42.624;23.386;2023-04-28T05:55:01;94515.31;;;20.60;25.40
7918;BME280;4004;42.624;23.386;2023-04-28T05:57:28;94508.75;;;20.20;25.57
7918;BME280;4004;42.624;23.386;2023-04-28T05:59:56;94521.19;;;20.24;25.90
7918;BME280;4004;42.624;23.386;2023-04-28T06:02:23;94519.19;;;20.28;26.14
7918;BME280;4004;42.624;23.386;2023-04-28T06:04:50;94524.44;;;20.12;26.24
7918;BME280;4004;42.624;23.386;2023-04-28T06:07:16;94519.28;;;19.83;26.48
7918;BME280;4004;42.624;23.386;2023-04-28T06:09:43;94516.13;;;18.77;27.44
7918;BME280;4004;42.624;23.386;2023-04-28T06:12:10;94521.47;;;18.10;28.19
7918;BME280;4004;42.624;23.386;2023-04-28T06:14:37;94521.41;;;18.25;28.32
7918;BME280;4004;42.624;23.386;2023-04-28T06:17:05;94505.19;;;18.03;27.91
7918;BME280;4004;42.624;23.386;2023-04-28T06:19:34;94521.88;;;18.12;28.22
7918;BME280;4004;42.624;23.386;2023-04-28T06:22:00;94506.72;;;18.04;28.25
7918;BME280;4004;42.624;23.386;2023-04-28T06:24:27;94524.28;;;17.56;28.52
7918;BME280;4004;42.624;23.386;2023-04-28T06:26:54;94521.56;;;17.46;28.84
7918;BME280;4004;42.624;23.386;2023-04-28T06:29:22;94521.94;;;17.51;28.59
7918;BME280;4004;42.624;23.386;2023-04-28T06:31:49;94528.16;;;17.59;28.83
7918;BME280;4004;42.624;23.386;2023-04-28T06:34:18;94530.47;;;17.68;28.84
7918;BME280;4004;42.624;23.386;2023-04-28T06:36:44;94528.88;;;17.92;28.59
7918;BME280;4004;42.624;23.386;2023-04-28T06:39:11;94520.38;;;17.83;28.27
7918;BME280;4004;42.624;23.386;2023-04-28T06:41:38;94525.81;;;17.83;27.92
7918;BME280;4004;42.624;23.386;2023-04-28T06:44:05;94523.78;;;18.15;27.92
7918;BME280;4004;42.624;23.386;2023-04-28T06:46:32;94509.75;;;18.28;27.99
7918;BME280;4004;42.624;23.386;2023-04-28T06:48:58;94508.53;;;18.36;27.66
7918;BME280;4004;42.624;23.386;2023-04-28T06:51:27;94513.13;;;18.53;27.49
7918;BME280;4004;42.624;23.386;2023-04-28T06:53:54;94513.25;;;18.28;27.20
7918;BME280;4004;42.624;23.386;2023-04-28T06:56:20;94503.16;;;18.21;27.84
7918;BME280;4004;42.624;23.386;2023-04-28T06:58:47;94509.00;;;18.23;27.51
7918;BME280;4004;42.624;23.386;2023-04-28T07:01:14;94515.00;;;18.71;27.25
7918;BME280;4004;42.624;23.386;2023-04-28T07:03:41;94519.59;;;18.88;27.01
7918;BME280;4004;42.624;23.386;2023-04-28T07:06:08;94516.66;;;18.43;27.16
7918;BME280;4004;42.624;23.386;2023-04-28T07:08:37;94510.25;;;17.79;27.95
7918;BME280;4004;42.624;23.386;2023-04-28T07:11:04;94515.69;;;17.90;28.01
7918;BME280;4004;42.624;23.386;2023-04-28T07:13:31;94525.00;;;18.00;27.89
7918;BME280;4004;42.624;23.386;2023-04-28T07:15:58;94515.59;;;18.26;27.54
7918;BME280;4004;42.624;23.386;2023-04-28T07:18:24;94510.88;;;18.34;27.66
7918;BME280;4004;42.624;23.386;2023-04-28T07:20:51;94518.53;;;18.68;27.49
7918;BME280;4004;42.624;23.386;2023-04-28T07:23:18;94512.72;;;18.58;27.19
7918;BME280;4004;42.624;23.386;2023-04-28T07:25:46;94515.00;;;18.71;27.30
7918;BME280;4004;42.624;23.386;2023-04-28T07:28:13;94509.28;;;18.47;27.22
7918;BME280;4004;42.624;23.386;2023-04-28T07:30:39;94518.63;;;18.42;27.41
7918;BME280;4004;42.624;23.386;2023-04-28T07:33:06;94516.31;;;18.41;27.79
7918;BME280;4004;42.624;23.386;2023-04-28T07:35:33;94513.34;;;17.96;27.97
7918;BME280;4004;42.624;23.386;2023-04-28T07:38:01;94517.22;;;17.80;28.39
7918;BME280;4004;42.624;23.386;2023-04-28T07:40:28;94524.97;;;18.14;28.14
7918;BME280;4004;42.624;23.386;2023-04-28T07:42:56;94523.81;;;18.08;27.80
7918;BME280;4004;42.624;23.386;2023-04-28T07:45:23;94519.97;;;17.73;28.38
7918;BME280;4004;42.624;23.386;2023-04-28T07:47:49;94523.47;;;17.56;28.39
7918;BME280;4004;42.624;23.386;2023-04-28T07:50:16;94521.91;;;17.73;28.59
7918;BME280;4004;42.624;23.386;2023-04-28T07:52:43;94523.50;;;17.63;28.89
7918;BME280;4004;42.624;23.386;2023-04-28T07:55:09;94521.13;;;17.79;28.30
7918;BME280;4004;42.624;23.386;2023-04-28T07:57:36;94515.69;;;18.01;27.97
7918;BME280;4004;42.624;23.386;2023-04-28T08:00:06;94519.53;;;18.14;27.92
7918;BME280;4004;42.624;23.386;2023-04-28T08:02:34;94517.22;;;17.98;26.95
7918;BME280;4004;42.624;23.386;2023-04-28T08:05:00;94522.34;;;17.21;27.88
7918;BME280;4004;42.624;23.386;2023-04-28T08:07:27;94525.69;;;16.61;29.76
7918;BME280;4004;42.624;23.386;2023-04-28T08:09:54;94526.97;;;15.90;29.96
7918;BME280;4004;42.624;23.386;2023-04-28T08:12:21;94516.31;;;15.63;29.98
7918;BME280;4004;42.624;23.386;2023-04-28T08:14:47;94518.44;;;15.88;30.12
7918;BME280;4004;42.624;23.386;2023-04-28T08:17:16;94502.28;;;16.20;29.94
7918;BME280;4004;42.624;23.386;2023-04-28T08:19:43;94505.78;;;16.17;29.66
7918;BME280;4004;42.624;23.386;2023-04-28T08:22:10;94520.34;;;15.87;29.80
7918;BME280;4004;42.624;23.386;2023-04-28T08:24:38;94520.56;;;15.64;30.58
7918;BME280;4004;42.624;23.386;2023-04-28T08:27:05;94510.50;;;15.65;30.92
7918;BME280;4004;42.624;23.386;2023-04-28T08:29:32;94518.94;;;15.52;30.78
7918;BME280;4004;42.624;23.386;2023-04-28T08:31:59;94511.94;;;15.00;31.12
7918;BME280;4004;42.624;23.386;2023-04-28T08:34:27;94515.78;;;14.58;32.55
7918;BME280;4004;42.624;23.386;2023-04-28T08:36:54;94501.00;;;14.48;32.55
7918;BME280;4004;42.624;23.386;2023-04-28T08:39:21;94504.34;;;14.71;31.51
7918;BME280;4004;42.624;23.386;2023-04-28T08:41:48;94502.34;;;14.65;31.48
7918;BME280;4004;42.624;23.386;2023-04-28T08:44:15;94505.44;;;14.63;31.32
7918;BME280;4004;42.624;23.386;2023-04-28T08:46:42;94494.41;;;14.49;32.69
7918;BME280;4004;42.624;23.386;2023-04-28T08:49:13;94492.88;;;14.85;32.60
7918;BME280;4004;42.624;23.386;2023-04-28T08:51:45;94498.25;;;15.26;31.89
7918;BME280;4004;42.624;23.386;2023-04-28T08:54:14;94494.19;;;15.54;30.97
7918;BME280;4004;42.624;23.386;2023-04-28T08:56:42;94493.53;;;15.71;30.59
7918;BME280;4004;42.624;23.386;2023-04-28T08:59:10;94484.19;;;15.65;30.51
7918;BME280;4004;42.624;23.386;2023-04-28T09:01:38;94490.22;;;15.41;31.14
7918;BME280;4004;42.624;23.386;2023-04-28T09:04:04;94492.41;;;15.24;31.69
7918;BME280;4004;42.624;23.386;2023-04-28T09:06:32;94487.84;;;15.32;31.55
7918;BME280;4004;42.624;23.386;2023-04-28T09:09:20;94485.22;;;15.46;31.35
7918;BME280;4004;42.624;23.386;2023-04-28T09:11:51;94476.41;;;15.60;31.00
7918;BME280;4004;42.624;23.386;2023-04-28T09:14:18;94474.34;;;15.43;30.83
7918;BME280;4004;42.624;23.386;2023-04-28T09:16:45;94470.75;;;15.21;31.44
7918;BME280;4004;42.624;23.386;2023-04-28T09:19:11;94468.69;;;15.07;31.47
7918;BME280;4004;42.624;23.386;2023-04-28T09:21:46;94471.88;;;15.20;31.36
7918;BME280;4004;42.624;23.386;2023-04-28T09:24:29;94470.13;;;15.45;31.03
7918;BME280;4004;42.624;23.386;2023-04-28T09:26:56;94468.28;;;15.60;30.77
7918;BME280;4004;42.624;23.386;2023-04-28T09:29:23;94465.28;;;15.17;31.60
7918;BME280;4004;42.624;23.386;2023-04-28T09:31:50;94467.25;;;14.72;31.89
7918;BME280;4004;42.624;23.386;2023-04-28T09:34:17;94453.03;;;14.45;32.71
7918;BME280;4004;42.624;23.386;2023-04-28T09:36:44;94452.06;;;14.26;33.57
7918;BME280;4004;42.624;23.386;2023-04-28T09:39:11;94463.44;;;14.05;32.87
7918;BME280;4004;42.624;23.386;2023-04-28T09:41:40;94440.84;;;13.91;33.46
7918;BME280;4004;42.624;23.386;2023-04-28T09:44:14;94446.94;;;13.84;33.19
7918;BME280;4004;42.624;23.386;2023-04-28T09:46:41;94448.41;;;13.78;33.45
7918;BME280;4004;42.624;23.386;2023-04-28T09:49:09;94427.50;;;13.71;33.21
7918;BME280;4004;42.624;23.386;2023-04-28T09:51:36;94442.38;;;13.88;32.78
7918;BME280;4004;42.624;23.386;2023-04-28T09:54:03;94439.94;;;13.79;33.40
7918;BME280;4004;42.624;23.386;2023-04-28T09:56:32;94431.34;;;14.04;33.71
7918;BME280;4004;42.624;23.386;2023-04-28T09:59:00;94425.53;;;14.02;32.74
7918;BME280;4004;42.624;23.386;2023-04-28T10:01:32;94429.19;;;14.17;33.04
7918;BME280;4004;42.624;23.386;2023-04-28T10:04:03;94422.84;;;14.02;33.57
7918;BME280;4004;42.624;23.386;2023-04-28T10:06:32;94419.44;;;13.75;34.23
7918;BME280;4004;42.624;23.386;2023-04-28T10:09:00;94412.94;;;13.79;34.06
7918;BME280;4004;42.624;23.386;2023-04-28T10:11:27;94413.75;;;13.83;34.34
7918;BME280;4004;42.624;23.386;2023-04-28T10:13:55;94408.94;;;14.03;33.61
7918;BME280;4004;42.624;23.386;2023-04-28T10:16:23;94403.69;;;14.18;37.00
7918;BME280;4004;42.624;23.386;2023-04-28T10:18:54;94406.38;;;14.18;38.85
7918;BME280;4004;42.624;23.386;2023-04-28T10:21:21;94408.50;;;14.35;39.94
7918;BME280;4004;42.624;23.386;2023-04-28T10:24:02;94412.69;;;14.29;36.31
7918;BME280;4004;42.624;23.386;2023-04-28T10:27:01;94406.56;;;14.36;34.75
7918;BME280;4004;42.624;23.386;2023-04-28T10:29:29;94392.63;;;14.34;34.12
7918;BME280;4004;42.624;23.386;2023-04-28T10:32:20;94407.97;;;14.22;31.56
7918;BME280;4004;42.624;23.386;2023-04-28T10:34:47;94398.69;;;14.20;31.27
7918;BME280;4004;42.624;23.386;2023-04-28T10:37:14;94400.28;;;14.24;32.20
7918;BME280;4004;42.624;23.386;2023-04-28T10:42:53;94382.28;;;14.02;32.74
7918;BME280;4004;42.624;23.386;2023-04-28T10:45:59;94383.50;;;14.08;32.48
7918;BME280;4004;42.624;23.386;2023-04-28T10:48:55;94387.16;;;14.23;32.81
7918;BME280;4004;42.624;23.386;2023-04-28T10:51:32;94378.69;;;14.31;33.02
7918;BME280;4004;42.624;23.386;2023-04-28T10:54:15;94372.13;;;14.29;34.65
7918;BME280;4004;42.624;23.386;2023-04-28T10:57:15;94365.69;;;14.03;33.03
7918;BME280;4004;42.624;23.386;2023-04-28T10:59:43;94364.53;;;14.01;32.96
7918;BME280;4004;42.624;23.386;2023-04-28T11:02:34;94374.59;;;14.04;33.11
7918;BME280;4004;42.624;23.386;2023-04-28T11:05:16;94371.22;;;14.14;33.01
7918;BME280;4004;42.624;23.386;2023-04-28T11:08:30;94377.41;;;14.15;32.55
7918;BME280;4004;42.624;23.386;2023-04-28T11:11:19;94366.41;;;13.97;31.50
7918;BME280;4004;42.624;23.386;2023-04-28T11:13:46;94359.78;;;13.91;31.88
7918;BME280;4004;42.624;23.386;2023-04-28T11:16:14;94354.31;;;13.87;32.63
7918;BME280;4004;42.624;23.386;2023-04-28T11:18:59;94354.22;;;13.76;33.03
7918;BME280;4004;42.624;23.386;2023-04-28T11:21:30;94344.13;;;13.70;33.16
7918;BME280;4004;42.624;23.386;2023-04-28T11:23:58;94348.84;;;13.80;31.93
7918;BME280;4004;42.624;23.386;2023-04-28T11:26:26;94339.50;;;13.74;32.60
7918;BME280;4004;42.624;23.386;2023-04-28T11:28:54;94347.25;;;13.75;32.31
7918;BME280;4004;42.624;23.386;2023-04-28T11:31:22;94333.38;;;13.77;32.08
7918;BME280;4004;42.624;23.386;2023-04-28T11:33:56;94346.44;;;13.71;31.97
7918;BME280;4004;42.624;23.386;2023-04-28T11:36:30;94337.63;;;13.78;32.27
7918;BME280;4004;42.624;23.386;2023-04-28T11:39:01;94338.91;;;13.87;32.36
7918;BME280;4004;42.624;23.386;2023-04-28T11:41:29;94332.38;;;13.92;31.95
7918;BME280;4004;42.624;23.386;2023-04-28T11:43:56;94330.09;;;13.98;32.11
7918;BME280;4004;42.624;23.386;2023-04-28T11:46:24;94330.50;;;14.00;32.24
7918;BME280;4004;42.624;23.386;2023-04-28T11:48:59;94332.16;;;14.08;31.77
7918;BME280;4004;42.624;23.386;2023-04-28T11:51:32;94327.97;;;14.18;31.69
7918;BME280;4004;42.624;23.386;2023-04-28T11:54:00;94309.81;;;14.18;31.73
7918;BME280;4004;42.624;23.386;2023-04-28T11:56:27;94315.22;;;14.18;31.26
7918;BME280;4004;42.624;23.386;2023-04-28T11:59:02;94316.09;;;14.26;30.84
7918;BME280;4004;42.624;23.386;2023-04-28T12:01:30;94318.84;;;14.33;30.98
7918;BME280;4004;42.624;23.386;2023-04-28T12:03:57;94317.44;;;14.50;29.78
7918;BME280;4004;42.624;23.386;2023-04-28T12:06:24;94311.34;;;14.57;28.46
7918;BME280;4004;42.624;23.386;2023-04-28T12:08:52;94300.53;;;14.60;29.06
7918;BME280;4004;42.624;23.386;2023-04-28T12:11:19;94308.63;;;14.60;29.72
7918;BME280;4004;42.624;23.386;2023-04-28T12:14:04;94305.19;;;14.67;29.40
7918;BME280;4004;42.624;23.386;2023-04-28T12:16:43;94299.38;;;14.61;28.89
7918;BME280;4004;42.624;23.386;2023-04-28T12:19:11;94299.78;;;14.63;28.13
7918;BME280;4004;42.624;23.386;2023-04-28T12:21:39;94295.34;;;14.44;28.87
7918;BME280;4004;42.624;23.386;2023-04-28T12:24:18;94287.19;;;14.37;29.42
7918;BME280;4004;42.624;23.386;2023-04-28T12:26:45;94299.50;;;14.27;30.23
7918;BME280;4004;42.624;23.386;2023-04-28T12:29:34;94299.56;;;14.38;30.52
7918;BME280;4004;42.624;23.386;2023-04-28T12:32:02;94298.50;;;14.54;29.91
7918;BME280;4004;42.624;23.386;2023-04-28T12:34:29;94276.09;;;14.53;30.70
7918;BME280;4004;42.624;23.386;2023-04-28T12:36:57;94294.63;;;14.51;30.06
7918;BME280;4004;42.624;23.386;2023-04-28T12:39:26;94287.69;;;14.54;29.48
7918;BME280;4004;42.624;23.386;2023-04-28T12:41:52;94276.19;;;14.64;29.55
7918;BME280;4004;42.624;23.386;2023-04-28T12:44:19;94288.19;;;14.66;29.72
7918;BME280;4004;42.624;23.386;2023-04-28T12:46:46;94276.19;;;14.64;29.59
7918;BME280;4004;42.624;23.386;2023-04-28T12:49:13;94271.59;;;14.68;30.10
7918;BME280;4004;42.624;23.386;2023-04-28T12:51:41;94268.53;;;14.73;30.28
7918;BME280;4004;42.624;23.386;2023-04-28T12:54:07;94266.66;;;14.84;29.92
7918;BME280;4004;42.624;23.386;2023-04-28T12:56:36;94267.38;;;14.78;30.88
7918;BME280;4004;42.624;23.386;2023-04-28T12:59:03;94265.47;;;14.82;30.40
7918;BME280;4004;42.624;23.386;2023-04-28T13:01:30;94262.81;;;14.85;31.00
7918;BME280;4004;42.624;23.386;2023-04-28T13:03:57;94256.19;;;14.79;32.30
7918;BME280;4004;42.624;23.386;2023-04-28T13:06:25;94262.44;;;14.90;32.09
7918;BME280;4004;42.624;23.386;2023-04-28T13:08:52;94253.56;;;14.93;31.44
7918;BME280;4004;42.624;23.386;2023-04-28T13:11:19;94251.66;;;15.01;30.89
7918;BME280;4004;42.624;23.386;2023-04-28T13:13:47;94250.94;;;15.08;30.80
7918;BME280;4004;42.624;23.386;2023-04-28T13:16:13;94258.66;;;15.06;30.35
7918;BME280;4004;42.624;23.386;2023-04-28T13:18:40;94254.78;;;15.07;30.52
7918;BME280;4004;42.624;23.386;2023-04-28T13:21:07;94250.44;;;14.88;31.19
7918;BME280;4004;42.624;23.386;2023-04-28T13:23:34;94246.09;;;14.76;32.07
7918;BME280;4004;42.624;23.386;2023-04-28T13:26:01;94238.06;;;14.90;31.57